Wilson Lisbon — 5BNU3 — position and weather

sailwx.info

Track history (hours):
 
Tides and Currents Weather Stations Pressure Air Temp Water Temp Dewpoint Dewpoint Depression Visibility Wind Speed Wind Dir Waves Ship Positions

Wilson Lisbon

Last reported at 2014-Aug-19 09:33 UTC. Time now 2014-Aug-22 23:35 UTC.
Position N 50°33' E 000°03'.

Length 90 m; draft 4.7 m.

Type: Ship. MMSI: 212376000.

Date/timePositionNaut miles runAvg speedWind from/ knotsBaromVisibWave heightAir tempDewpointWater temp
2014-Aug-19 09:33N 50°33' E 000°03'9 9.3
2014-Aug-19 08:33N 50°36' E 000°17'9 9.4
2014-Aug-19 07:33N 50°38' E 000°31'9 8.9
2014-Aug-19 06:33N 50°43' E 000°43'9 8.6
2014-Aug-19 05:33N 50°48' E 000°54'8 8.2
2014-Aug-19 04:32N 50°53' E 001°05'10 8.7
2014-Aug-19 03:22N 50°59' E 001°17'8 9.3
2014-Aug-19 02:33N 51°04' E 001°27'1110.8
2014-Aug-19 01:33N 51°12' E 001°38'1010.3
2014-Aug-19 00:33N 51°22' E 001°36'9 9.4
2014-Aug-18 23:33N 51°28' E 001°24'1010.2
2014-Aug-18 22:33N 51°29' E 001°08'1111.0
2014-Aug-18 21:33N 51°29' E 000°50'1312.9
2014-Aug-18 20:33N 51°30' E 000°29'9 8.9
2014-Aug-18 19:33N 51°28' E 000°15'5 5.1
2014-Aug-18 18:33N 51°31' E 000°09'0 0.0
2014-Aug-18 17:33N 51°31' E 000°09'0 0.0
2014-Aug-18 16:33N 51°31' E 000°09'0 0.0
2014-Aug-18 15:33N 51°31' E 000°09'0 0.0
2014-Aug-18 14:33N 51°31' E 000°09'0 0.0
2014-Aug-18 13:33N 51°31' E 000°09'0 0.0
2014-Aug-18 12:33N 51°31' E 000°09'0 0.0
2014-Aug-18 11:33N 51°31' E 000°09'0 0.0
2014-Aug-18 10:33N 51°31' E 000°09'0 0.0
2014-Aug-18 09:30N 51°31' E 000°09'0 0.0
2014-Aug-18 08:33N 51°31' E 000°09'0 0.0
2014-Aug-18 07:33N 51°31' E 000°09'0 0.0
2014-Aug-18 06:33N 51°31' E 000°09'0 0.0
2014-Aug-18 05:33N 51°31' E 000°09'0 0.0
2014-Aug-18 04:33N 51°31' E 000°09'0 0.0
2014-Aug-18 03:33N 51°31' E 000°09'0 0.0
2014-Aug-18 02:33N 51°31' E 000°09'0 0.0
2014-Aug-18 01:33N 51°31' E 000°09'0 0.0
2014-Aug-18 00:33N 51°31' E 000°09'0 0.0
2014-Aug-17 18:33N 51°31' E 000°09'0 0.0
2014-Aug-17 17:33N 51°31' E 000°09'0 0.0
2014-Aug-17 16:33N 51°31' E 000°09'0 0.0
2014-Aug-17 15:33N 51°31' E 000°09'0 0.0
2014-Aug-17 14:33N 51°31' E 000°09'0 0.0
2014-Aug-17 13:33N 51°31' E 000°09'0 0.0
2014-Aug-17 12:33N 51°31' E 000°09'0 0.0
2014-Aug-17 11:33N 51°31' E 000°09'0 0.0
2014-Aug-17 10:33N 51°31' E 000°09'0 0.0
2014-Aug-17 09:33N 51°31' E 000°09'0 0.0
2014-Aug-17 08:33N 51°31' E 000°09'0 0.0
2014-Aug-17 07:33N 51°31' E 000°09'0 0.0
2014-Aug-17 06:33N 51°31' E 000°09'0 0.0
2014-Aug-17 05:33N 51°31' E 000°09'0 0.0
2014-Aug-17 04:33N 51°31' E 000°09'0 0.0
2014-Aug-17 03:32N 51°31' E 000°09'0 0.0
2014-Aug-17 02:32N 51°31' E 000°09'0 0.0
2014-Aug-17 01:32N 51°31' E 000°09'0 0.0
2014-Aug-17 00:32N 51°31' E 000°09'0 0.0
2014-Aug-16 23:32N 51°31' E 000°09'0 0.0
2014-Aug-16 22:32N 51°31' E 000°09'0 0.0
2014-Aug-16 21:32N 51°31' E 000°09'0 0.0
2014-Aug-16 20:32N 51°31' E 000°09'0 0.0
2014-Aug-16 19:32N 51°31' E 000°09'0 0.0
2014-Aug-16 18:32N 51°31' E 000°09'0 0.0
2014-Aug-16 17:32N 51°31' E 000°09'0 0.0
2014-Aug-16 16:32N 51°31' E 000°09'0 0.0
2014-Aug-16 15:32N 51°31' E 000°09'0 0.0
2014-Aug-16 14:32N 51°31' E 000°09'0 0.0
2014-Aug-16 13:32N 51°31' E 000°09'0 0.0
2014-Aug-16 12:32N 51°31' E 000°09'0 0.0
2014-Aug-16 11:32N 51°31' E 000°09'0 0.0
2014-Aug-16 10:32N 51°31' E 000°09'0 0.0
2014-Aug-16 09:32N 51°31' E 000°09'0 0.0
2014-Aug-16 08:32N 51°31' E 000°09'0 0.0
2014-Aug-16 07:32N 51°31' E 000°09'0 0.0
2014-Aug-16 06:32N 51°31' E 000°09'0 0.0
2014-Aug-16 05:32N 51°31' E 000°09'0 0.0
2014-Aug-16 04:32N 51°31' E 000°09'0 0.0
2014-Aug-16 03:32N 51°31' E 000°09'0 0.0
2014-Aug-16 02:32N 51°31' E 000°09'0 0.0
2014-Aug-16 01:32N 51°31' E 000°09'0 0.0
2014-Aug-16 00:32N 51°31' E 000°09'0 0.0
2014-Aug-15 23:32N 51°31' E 000°09'0 0.0
2014-Aug-15 22:32N 51°31' E 000°09'0 0.0
2014-Aug-15 21:32N 51°31' E 000°09'0 0.0
2014-Aug-15 20:32N 51°31' E 000°09'0 0.0
2014-Aug-15 19:32N 51°31' E 000°09'0 0.0
2014-Aug-15 18:32N 51°31' E 000°09'0 0.0
2014-Aug-15 17:32N 51°31' E 000°09'0 0.0
2014-Aug-15 16:32N 51°31' E 000°09'0 0.0
2014-Aug-15 15:32N 51°31' E 000°09'0 0.0
2014-Aug-15 14:32N 51°31' E 000°09'0 0.0
2014-Aug-15 13:32N 51°31' E 000°09'0 0.0
2014-Aug-15 12:32N 51°31' E 000°09'0 0.0
2014-Aug-15 11:32N 51°31' E 000°09'0 0.0
2014-Aug-15 10:32N 51°31' E 000°09'0 0.0
2014-Aug-15 09:32N 51°31' E 000°09'0 0.0
2014-Aug-15 08:32N 51°31' E 000°09'0 0.0
2014-Aug-15 07:32N 51°31' E 000°09'0 0.0
2014-Aug-15 06:32N 51°31' E 000°09'0 0.0
2014-Aug-15 05:32N 51°31' E 000°09'0 0.0
2014-Aug-15 04:32N 51°31' E 000°09'0 0.0
2014-Aug-15 03:32N 51°31' E 000°09'0 0.0
2014-Aug-15 02:32N 51°31' E 000°09'0 0.0
2014-Aug-15 01:32N 51°31' E 000°09'0 0.0
2014-Aug-15 00:32N 51°31' E 000°09'0 0.0
2014-Aug-14 23:32N 51°31' E 000°09'0 0.0
2014-Aug-14 22:29N 51°31' E 000°09'0 0.0
2014-Aug-14 21:32N 51°31' E 000°09'0 0.0
2014-Aug-14 20:32N 51°31' E 000°09'0 0.0
2014-Aug-14 19:32N 51°31' E 000°09'0 0.0
2014-Aug-14 18:32N 51°31' E 000°09'0 0.0
2014-Aug-14 17:32N 51°31' E 000°09'0 0.0
2014-Aug-14 16:32N 51°31' E 000°09'0 0.0
2014-Aug-14 15:33N 51°31' E 000°09'5 5.2
2014-Aug-14 14:33N 51°28' E 000°16'1 1.2
2014-Aug-14 13:33N 51°28' E 000°18'0 0.0
2014-Aug-14 12:33N 51°28' E 000°18'0 0.0
2014-Aug-14 11:33N 51°28' E 000°18'0 0.0
2014-Aug-14 10:34N 51°28' E 000°18'0 0.0
2014-Aug-14 09:33N 51°28' E 000°18'0 0.0
2014-Aug-14 08:34N 51°28' E 000°18'0 0.0
2014-Aug-14 07:33N 51°28' E 000°18'0 0.0
2014-Aug-14 06:34N 51°28' E 000°18'0 0.0
2014-Aug-14 05:34N 51°28' E 000°18'0 0.0
2014-Aug-14 04:33N 51°28' E 000°18'0 0.0
2014-Aug-14 03:33N 51°28' E 000°18'0 0.0
2014-Aug-14 02:34N 51°28' E 000°18'0 0.0
2014-Aug-14 01:34N 51°28' E 000°18'0 0.0
2014-Aug-14 00:33N 51°28' E 000°18'0 0.0
2014-Aug-13 23:34N 51°28' E 000°18'0 0.0
2014-Aug-13 22:34N 51°28' E 000°18'0 0.0
2014-Aug-13 21:33N 51°28' E 000°18'0 0.0
2014-Aug-13 20:33N 51°28' E 000°18'0 0.0
2014-Aug-13 19:34N 51°28' E 000°18'0 0.0
2014-Aug-13 18:34N 51°28' E 000°18'0 0.0
2014-Aug-13 17:34N 51°28' E 000°18'0 0.0
2014-Aug-13 16:34N 51°28' E 000°18'0 0.0
2014-Aug-13 15:34N 51°28' E 000°18'0 0.0
2014-Aug-13 14:33N 51°28' E 000°18'0 0.0
2014-Aug-13 13:33N 51°28' E 000°18'0 0.0
2014-Aug-13 12:34N 51°28' E 000°18'0 0.0
2014-Aug-13 11:34N 51°28' E 000°18'0 0.0
2014-Aug-13 10:33N 51°28' E 000°18'0 0.0
2014-Aug-13 09:33N 51°28' E 000°18'0 0.0
2014-Aug-13 08:34N 51°28' E 000°18'0 0.0
2014-Aug-13 07:34N 51°28' E 000°18'0 0.0
2014-Aug-13 06:33N 51°28' E 000°18'0 0.0
2014-Aug-13 05:33N 51°28' E 000°18'0 0.0
2014-Aug-13 04:33N 51°28' E 000°18'0 0.0
2014-Aug-13 03:33N 51°28' E 000°18'0 0.0
2014-Aug-13 02:34N 51°28' E 000°18'0 0.0
2014-Aug-13 01:34N 51°28' E 000°18'0 0.0
2014-Aug-13 00:34N 51°28' E 000°18'0 0.0
2014-Aug-12 23:33N 51°28' E 000°18'0 0.0
2014-Aug-12 22:34N 51°28' E 000°18'0 0.0
2014-Aug-12 21:33N 51°28' E 000°18'0 0.0
2014-Aug-12 20:34N 51°28' E 000°18'0 0.0
2014-Aug-12 19:33N 51°28' E 000°18'0 0.0
2014-Aug-12 18:19N 51°28' E 000°18'0 0.0
2014-Aug-12 17:33N 51°28' E 000°18'0 0.0
2014-Aug-12 16:34N 51°28' E 000°18'0 0.0
2014-Aug-12 15:34N 51°28' E 000°18'0 0.0
2014-Aug-12 14:34N 51°28' E 000°18'0 0.0
2014-Aug-12 13:34N 51°28' E 000°18'0 0.0
2014-Aug-12 12:33N 51°28' E 000°18'0 0.0
2014-Aug-12 11:33N 51°28' E 000°18'0 0.0
2014-Aug-12 10:33N 51°28' E 000°18'0 0.0
2014-Aug-12 09:33N 51°28' E 000°18'0 0.0
2014-Aug-12 08:33N 51°28' E 000°18'0 0.3
2014-Aug-12 07:34N 51°28' E 000°18'6 6.0
2014-Aug-12 06:33N 51°29' E 000°27'7 7.2
2014-Aug-12 05:33N 51°30' E 000°39'8 7.6
2014-Aug-12 04:33N 51°30' E 000°51'7 6.9
2014-Aug-12 03:33N 51°30' E 001°02'8 7.7
2014-Aug-12 02:33N 51°29' E 001°14'9 8.9
2014-Aug-12 01:33N 51°27' E 001°28'1111.4
2014-Aug-12 00:33N 51°18' E 001°39'1010.0
2014-Aug-11 23:34N 51°08' E 001°41'1212.4
2014-Aug-11 22:33N 50°58' E 001°30'46 9.2
2014-Aug-11 17:33N 50°28' E 000°35'9 8.5
2014-Aug-11 16:32N 50°25' E 000°22'  
Track history (hours):
 
Tides and Currents Weather Stations Pressure Air Temp Water Temp Dewpoint Dewpoint Depression Visibility Wind Speed Wind Dir Waves Ship Positions

Wilson Lisbon

Last reported at 2014-Aug-19 09:33 UTC. Time now 2014-Aug-22 23:35 UTC.
Position N 50°33' E 000°03'.

Length 90 m; draft 4.7 m.

Type: Ship. MMSI: 212376000.

Date/timePositionNaut miles runAvg speedWind from/ knotsBaromVisibWave heightAir tempDewpointWater temp
2014-Aug-19 09:33N 50°33' E 000°03'9 9.3
2014-Aug-19 08:33N 50°36' E 000°17'9 9.4
2014-Aug-19 07:33N 50°38' E 000°31'9 8.9
2014-Aug-19 06:33N 50°43' E 000°43'9 8.6
2014-Aug-19 05:33N 50°48' E 000°54'8 8.2
2014-Aug-19 04:32N 50°53' E 001°05'10 8.7
2014-Aug-19 03:22N 50°59' E 001°17'8 9.3
2014-Aug-19 02:33N 51°04' E 001°27'1110.8
2014-Aug-19 01:33N 51°12' E 001°38'1010.3
2014-Aug-19 00:33N 51°22' E 001°36'9 9.4
2014-Aug-18 23:33N 51°28' E 001°24'1010.2
2014-Aug-18 22:33N 51°29' E 001°08'1111.0
2014-Aug-18 21:33N 51°29' E 000°50'1312.9
2014-Aug-18 20:33N 51°30' E 000°29'9 8.9
2014-Aug-18 19:33N 51°28' E 000°15'5 5.1
2014-Aug-18 18:33N 51°31' E 000°09'0 0.0
2014-Aug-18 17:33N 51°31' E 000°09'0 0.0
2014-Aug-18 16:33N 51°31' E 000°09'0 0.0
2014-Aug-18 15:33N 51°31' E 000°09'0 0.0
2014-Aug-18 14:33N 51°31' E 000°09'0 0.0
2014-Aug-18 13:33N 51°31' E 000°09'0 0.0
2014-Aug-18 12:33N 51°31' E 000°09'0 0.0
2014-Aug-18 11:33N 51°31' E 000°09'0 0.0
2014-Aug-18 10:33N 51°31' E 000°09'0 0.0
2014-Aug-18 09:30N 51°31' E 000°09'0 0.0
2014-Aug-18 08:33N 51°31' E 000°09'0 0.0
2014-Aug-18 07:33N 51°31' E 000°09'0 0.0
2014-Aug-18 06:33N 51°31' E 000°09'0 0.0
2014-Aug-18 05:33N 51°31' E 000°09'0 0.0
2014-Aug-18 04:33N 51°31' E 000°09'0 0.0
2014-Aug-18 03:33N 51°31' E 000°09'0 0.0
2014-Aug-18 02:33N 51°31' E 000°09'0 0.0
2014-Aug-18 01:33N 51°31' E 000°09'0 0.0
2014-Aug-18 00:33N 51°31' E 000°09'0 0.0
2014-Aug-17 18:33N 51°31' E 000°09'0 0.0
2014-Aug-17 17:33N 51°31' E 000°09'0 0.0
2014-Aug-17 16:33N 51°31' E 000°09'0 0.0
2014-Aug-17 15:33N 51°31' E 000°09'0 0.0
2014-Aug-17 14:33N 51°31' E 000°09'0 0.0
2014-Aug-17 13:33N 51°31' E 000°09'0 0.0
2014-Aug-17 12:33N 51°31' E 000°09'0 0.0
2014-Aug-17 11:33N 51°31' E 000°09'0 0.0
2014-Aug-17 10:33N 51°31' E 000°09'0 0.0
2014-Aug-17 09:33N 51°31' E 000°09'0 0.0
2014-Aug-17 08:33N 51°31' E 000°09'0 0.0
2014-Aug-17 07:33N 51°31' E 000°09'0 0.0
2014-Aug-17 06:33N 51°31' E 000°09'0 0.0
2014-Aug-17 05:33N 51°31' E 000°09'0 0.0
2014-Aug-17 04:33N 51°31' E 000°09'0 0.0
2014-Aug-17 03:32N 51°31' E 000°09'0 0.0
2014-Aug-17 02:32N 51°31' E 000°09'0 0.0
2014-Aug-17 01:32N 51°31' E 000°09'0 0.0
2014-Aug-17 00:32N 51°31' E 000°09'0 0.0
2014-Aug-16 23:32N 51°31' E 000°09'0 0.0
2014-Aug-16 22:32N 51°31' E 000°09'0 0.0
2014-Aug-16 21:32N 51°31' E 000°09'0 0.0
2014-Aug-16 20:32N 51°31' E 000°09'0 0.0
2014-Aug-16 19:32N 51°31' E 000°09'0 0.0
2014-Aug-16 18:32N 51°31' E 000°09'0 0.0
2014-Aug-16 17:32N 51°31' E 000°09'0 0.0
2014-Aug-16 16:32N 51°31' E 000°09'0 0.0
2014-Aug-16 15:32N 51°31' E 000°09'0 0.0
2014-Aug-16 14:32N 51°31' E 000°09'0 0.0
2014-Aug-16 13:32N 51°31' E 000°09'0 0.0
2014-Aug-16 12:32N 51°31' E 000°09'0 0.0
2014-Aug-16 11:32N 51°31' E 000°09'0 0.0
2014-Aug-16 10:32N 51°31' E 000°09'0 0.0
2014-Aug-16 09:32N 51°31' E 000°09'0 0.0
2014-Aug-16 08:32N 51°31' E 000°09'0 0.0
2014-Aug-16 07:32N 51°31' E 000°09'0 0.0
2014-Aug-16 06:32N 51°31' E 000°09'0 0.0
2014-Aug-16 05:32N 51°31' E 000°09'0 0.0
2014-Aug-16 04:32N 51°31' E 000°09'0 0.0
2014-Aug-16 03:32N 51°31' E 000°09'0 0.0
2014-Aug-16 02:32N 51°31' E 000°09'0 0.0
2014-Aug-16 01:32N 51°31' E 000°09'0 0.0
2014-Aug-16 00:32N 51°31' E 000°09'0 0.0
2014-Aug-15 23:32N 51°31' E 000°09'0 0.0
2014-Aug-15 22:32N 51°31' E 000°09'0 0.0
2014-Aug-15 21:32N 51°31' E 000°09'0 0.0
2014-Aug-15 20:32N 51°31' E 000°09'0 0.0
2014-Aug-15 19:32N 51°31' E 000°09'0 0.0
2014-Aug-15 18:32N 51°31' E 000°09'0 0.0
2014-Aug-15 17:32N 51°31' E 000°09'0 0.0
2014-Aug-15 16:32N 51°31' E 000°09'0 0.0
2014-Aug-15 15:32N 51°31' E 000°09'0 0.0
2014-Aug-15 14:32N 51°31' E 000°09'0 0.0
2014-Aug-15 13:32N 51°31' E 000°09'0 0.0
2014-Aug-15 12:32N 51°31' E 000°09'0 0.0
2014-Aug-15 11:32N 51°31' E 000°09'0 0.0
2014-Aug-15 10:32N 51°31' E 000°09'0 0.0
2014-Aug-15 09:32N 51°31' E 000°09'0 0.0
2014-Aug-15 08:32N 51°31' E 000°09'0 0.0
2014-Aug-15 07:32N 51°31' E 000°09'0 0.0
2014-Aug-15 06:32N 51°31' E 000°09'0 0.0
2014-Aug-15 05:32N 51°31' E 000°09'0 0.0
2014-Aug-15 04:32N 51°31' E 000°09'0 0.0
2014-Aug-15 03:32N 51°31' E 000°09'0 0.0
2014-Aug-15 02:32N 51°31' E 000°09'0 0.0
2014-Aug-15 01:32N 51°31' E 000°09'0 0.0
2014-Aug-15 00:32N 51°31' E 000°09'0 0.0
2014-Aug-14 23:32N 51°31' E 000°09'0 0.0
2014-Aug-14 22:29N 51°31' E 000°09'0 0.0
2014-Aug-14 21:32N 51°31' E 000°09'0 0.0
2014-Aug-14 20:32N 51°31' E 000°09'0 0.0
2014-Aug-14 19:32N 51°31' E 000°09'0 0.0
2014-Aug-14 18:32N 51°31' E 000°09'0 0.0
2014-Aug-14 17:32N 51°31' E 000°09'0 0.0
2014-Aug-14 16:32N 51°31' E 000°09'0 0.0
2014-Aug-14 15:33N 51°31' E 000°09'5 5.2
2014-Aug-14 14:33N 51°28' E 000°16'1 1.2
2014-Aug-14 13:33N 51°28' E 000°18'0 0.0
2014-Aug-14 12:33N 51°28' E 000°18'0 0.0
2014-Aug-14 11:33N 51°28' E 000°18'0 0.0
2014-Aug-14 10:34N 51°28' E 000°18'0 0.0
2014-Aug-14 09:33N 51°28' E 000°18'0 0.0
2014-Aug-14 08:34N 51°28' E 000°18'0 0.0
2014-Aug-14 07:33N 51°28' E 000°18'0 0.0
2014-Aug-14 06:34N 51°28' E 000°18'0 0.0
2014-Aug-14 05:34N 51°28' E 000°18'0 0.0
2014-Aug-14 04:33N 51°28' E 000°18'0 0.0
2014-Aug-14 03:33N 51°28' E 000°18'0 0.0
2014-Aug-14 02:34N 51°28' E 000°18'0 0.0
2014-Aug-14 01:34N 51°28' E 000°18'0 0.0
2014-Aug-14 00:33N 51°28' E 000°18'0 0.0
2014-Aug-13 23:34N 51°28' E 000°18'0 0.0
2014-Aug-13 22:34N 51°28' E 000°18'0 0.0
2014-Aug-13 21:33N 51°28' E 000°18'0 0.0
2014-Aug-13 20:33N 51°28' E 000°18'0 0.0
2014-Aug-13 19:34N 51°28' E 000°18'0 0.0
2014-Aug-13 18:34N 51°28' E 000°18'0 0.0
2014-Aug-13 17:34N 51°28' E 000°18'0 0.0
2014-Aug-13 16:34N 51°28' E 000°18'0 0.0
2014-Aug-13 15:34N 51°28' E 000°18'0 0.0
2014-Aug-13 14:33N 51°28' E 000°18'0 0.0
2014-Aug-13 13:33N 51°28' E 000°18'0 0.0
2014-Aug-13 12:34N 51°28' E 000°18'0 0.0
2014-Aug-13 11:34N 51°28' E 000°18'0 0.0
2014-Aug-13 10:33N 51°28' E 000°18'0 0.0
2014-Aug-13 09:33N 51°28' E 000°18'0 0.0
2014-Aug-13 08:34N 51°28' E 000°18'0 0.0
2014-Aug-13 07:34N 51°28' E 000°18'0 0.0
2014-Aug-13 06:33N 51°28' E 000°18'0 0.0
2014-Aug-13 05:33N 51°28' E 000°18'0 0.0
2014-Aug-13 04:33N 51°28' E 000°18'0 0.0
2014-Aug-13 03:33N 51°28' E 000°18'0 0.0
2014-Aug-13 02:34N 51°28' E 000°18'0 0.0
2014-Aug-13 01:34N 51°28' E 000°18'0 0.0
2014-Aug-13 00:34N 51°28' E 000°18'0 0.0
2014-Aug-12 23:33N 51°28' E 000°18'0 0.0
2014-Aug-12 22:34N 51°28' E 000°18'0 0.0
2014-Aug-12 21:33N 51°28' E 000°18'0 0.0
2014-Aug-12 20:34N 51°28' E 000°18'0 0.0
2014-Aug-12 19:33N 51°28' E 000°18'0 0.0
2014-Aug-12 18:19N 51°28' E 000°18'0 0.0
2014-Aug-12 17:33N 51°28' E 000°18'0 0.0
2014-Aug-12 16:34N 51°28' E 000°18'0 0.0
2014-Aug-12 15:34N 51°28' E 000°18'0 0.0
2014-Aug-12 14:34N 51°28' E 000°18'0 0.0
2014-Aug-12 13:34N 51°28' E 000°18'0 0.0
2014-Aug-12 12:33N 51°28' E 000°18'0 0.0
2014-Aug-12 11:33N 51°28' E 000°18'0 0.0
2014-Aug-12 10:33N 51°28' E 000°18'0 0.0
2014-Aug-12 09:33N 51°28' E 000°18'0 0.0
2014-Aug-12 08:33N 51°28' E 000°18'0 0.3
2014-Aug-12 07:34N 51°28' E 000°18'6 6.0
2014-Aug-12 06:33N 51°29' E 000°27'7 7.2
2014-Aug-12 05:33N 51°30' E 000°39'8 7.6
2014-Aug-12 04:33N 51°30' E 000°51'7 6.9
2014-Aug-12 03:33N 51°30' E 001°02'8 7.7
2014-Aug-12 02:33N 51°29' E 001°14'9 8.9
2014-Aug-12 01:33N 51°27' E 001°28'1111.4
2014-Aug-12 00:33N 51°18' E 001°39'1010.0
2014-Aug-11 23:34N 51°08' E 001°41'1212.4
2014-Aug-11 22:33N 50°58' E 001°30'46 9.2
2014-Aug-11 17:33N 50°28' E 000°35'9 8.5
2014-Aug-11 16:32N 50°25' E 000°22'  

Dump ship's entire track history